Latest Coastal Weather Observations for Gunn Point

IDD60701

Issued at 5:51 am CST Friday 31 March 2017 (issued every 10 minutes, with the page automatically refreshed every 10 minutes)

About coastal observations | Map of coastal stations | Coastal observations for NT | Marine services | Other Formats
Station Details ID: 014023 Name: GUNN POINT Lat: -12.25 Lon: 131.04 Height: 25.0 m
Data from the previous 72 hours. | See also: Recent months for locations in Northern Territory
Date/Time
CST
Temp
°C
Wind Pressure Rain since
9am
mm
Weather Cloud Vis
km
Sea
Height
m
Swell
Dir  Spd
kts
Gust
kts
hPa Trend Height
m
Period
s
Dir
31/05:30am 22.9 SSW 5 9 1008.6 - 24.2 - - - - - - -
31/05:00am 22.6 SSW 2 4 1008.6 - 23.2 - - - - - - -
31/04:30am 22.5 SSE 3 6 1009.6 - 21.2 - - - - - - -
31/04:00am 22.5 ESE 2 4 1009.6 - 19.0 - - - - - - -
31/03:30am 22.6 ESE 5 10 1011.0 - 17.2 - - - - - - -
31/03:00am 22.2 ENE 9 15 1010.9 - 8.8 Rain - - - - - -
31/02:30am 26.1 E 3 12 1010.9 - 0.0 - - - - - - -
31/02:00am 26.4 S 1 3 1008.9 - 0.0 - - - - - - -
31/01:30am 26.7 SW 2 5 1008.7 - 0.0 - - - - - - -
31/01:00am 27.0 SSW 3 7 1009.4 - 0.0 - - - - - - -
31/12:30am 26.5 CALM 0 0 1009.4 - 0.0 - - - - - - -
31/12:00am 26.6 CALM 0 0 1009.3 - 0.0 - - - - - - -
 
Date/Time
CST
Temp
°C
Wind Pressure Rain since
9am
mm
Weather Cloud Vis
km
Sea
Height
m
Swell
Dir  Spd
kts
Gust
kts
hPa Trend Height
m
Period
s
Dir
30/11:30pm 27.1 CALM 0 0 1009.4 - 0.0 - - - - - - -
30/11:00pm 27.7 CALM 0 1 1009.5 - 0.0 - - - - - - -
30/10:30pm 28.4 SW 1 3 1009.8 - 0.0 - - - - - - -
30/10:00pm 28.8 WSW 5 10 1009.9 - 0.0 - - - - - - -
30/09:30pm 29.1 WSW 5 10 1009.8 - 0.0 - - - - - - -
30/09:00pm 29.1 WSW 5 9 1009.5 - 0.0 - - - - - - -
30/08:30pm 29.0 WSW 5 9 1009.2 - 0.0 - - - - - - -
30/08:00pm 28.8 WSW 4 7 1008.6 - 0.0 - - - - - - -
30/07:30pm 28.7 W 3 8 1008.2 - 0.0 - - - - - - -
30/07:00pm 28.7 W 4 7 1008.0 - 0.0 - - - - - - -
30/06:30pm 29.1 W 4 7 1007.5 - 0.0 - - - - - - -
30/06:00pm 29.6 WNW 4 10 1007.1 - 0.0 - - - - - - -
30/05:30pm 30.1 W 4 7 1007.0 - 0.0 - - - - - - -
30/05:00pm 30.4 WNW 4 10 1007.0 - 0.0 - - - - - - -
30/04:30pm 30.4 WNW 4 8 1007.5 - 0.0 - - - - - - -
30/04:00pm 30.6 W 4 9 1007.5 - 0.0 - - - - - - -
30/03:30pm 30.7 W 5 10 1007.5 - 0.0 - - - - - - -
30/03:00pm 30.7 WNW 5 9 1007.8 - 0.0 - - - - - - -
30/02:30pm 30.0 W 6 10 1008.0 - 0.0 - - - - - - -
30/02:00pm 30.9 W 5 11 1008.4 - 0.0 - - - - - - -
30/01:30pm 30.9 W 7 11 1008.7 - 0.0 - - - - - - -
30/01:00pm 30.7 WSW 8 14 1009.0 - 0.0 - - - - - - -
30/12:30pm 30.5 W 6 11 1009.5 - 0.0 - - - - - - -
30/12:00pm 30.8 W 6 10 1010.0 - 0.0 - - - - - - -
30/11:30am 30.6 WSW 5 9 1010.2 - 0.0 - - - - - - -
30/11:00am 30.5 W 5 10 1010.5 - 0.0 - - - - - - -
30/10:30am 30.1 W 5 9 1010.5 - 0.0 - - - - - - -
30/10:00am 29.9 W 5 8 1010.4 - 0.0 - - - - - - -
30/09:30am 29.3 W 3 6 1010.3 - 0.0 - - - - - - -
30/09:00am 28.5 W 2 5 1010.0 - 2.4 - - - - - - -
30/08:30am 27.8 W 3 7 1009.5 - 2.4 - - - - - - -
30/08:00am 26.8 W 3 5 1009.1 - 2.4 - - - - - - -
30/07:30am 25.9 CALM 0 2 1008.7 - 2.4 - - - - - - -
30/07:00am 25.5 NW 3 6 1008.2 - 2.4 - - - - - - -
30/06:30am 25.4 NW 4 7 1008.4 - 2.2 - - - - - - -
30/06:00am 25.1 WNW 2 5 1008.4 - 1.8 Recent precip. - - - - - -
30/05:30am 24.9 N 4 7 1008.9 - 1.6 - - - - - - -
30/05:00am 24.9 NNE 5 8 1009.3 - 1.2 - - - - - - -
30/04:30am 25.0 ENE 5 11 1009.7 - 1.2 - - - - - - -
30/04:00am 25.0 E 5 10 1010.0 - 1.2 - - - - - - -
30/03:30am 24.8 ESE 5 9 1009.5 - 1.2 - - - - - - -
30/03:00am 23.9 SE 6 9 1010.2 - 1.2 - - - - - - -
30/02:30am 23.7 ESE 4 6 1010.0 - 1.2 - - - - - - -
30/02:00am 23.9 E 3 5 1009.7 - 1.2 - - - - - - -
30/01:30am 24.3 S 2 5 1009.3 - 1.2 - - - - - - -
30/01:00am 24.7 ENE 2 3 1009.9 - 1.2 - - - - - - -
30/12:30am 25.3 CALM 0 0 1009.2 - 1.2 - - - - - - -
30/12:00am 25.1 WSW 1 2 1008.9 - 1.2 - - - - - - -
 
Date/Time
CST
Temp
°C
Wind Pressure Rain since
9am
mm
Weather Cloud Vis
km
Sea
Height
m
Swell
Dir  Spd
kts
Gust
kts
hPa Trend Height
m
Period
s
Dir
29/11:30pm 24.5 WNW 2 4 1008.3 - 1.2 - - - - - - -
29/11:00pm 23.9 WNW 3 6 1009.1 - 1.2 - - - - - - -
29/10:30pm 23.8 W 4 8 1010.5 - 0.8 - - - - - - -
29/10:00pm 27.6 S 5 19 1010.7 - 0.0 - - - - - - -
29/09:30pm 29.1 SW 2 6 1010.7 - 0.0 - - - - - - -
29/09:00pm 29.4 WSW 2 5 1010.5 - 0.0 - - - - - - -
29/08:30pm 29.4 W 5 7 1009.6 - 0.0 - - - - - - -
29/08:00pm 29.4 W 5 8 1008.6 - 0.0 - - - - - - -
29/07:30pm 29.4 W 4 7 1008.1 - 0.0 - - - - - - -
29/07:00pm 29.5 W 5 10 1008.0 - 0.0 - - - - - - -
29/06:30pm 29.7 W 5 8 1007.2 - 0.0 - - - - - - -
29/06:00pm 29.9 W 6 11 1007.0 - 0.0 - - - - - - -
29/05:30pm 30.5 W 6 13 1006.8 - 0.0 - - - - - - -
29/05:00pm 30.7 W 6 11 1006.7 - 0.0 - - - - - - -
29/04:30pm 30.9 W 8 14 1006.3 - 0.0 - - - - - - -
29/04:00pm 31.7 W 8 17 1005.7 - 0.0 - - - - - - -
29/03:30pm 31.3 W 8 14 1006.3 - 0.0 - - - - - - -
29/03:00pm 31.6 W 8 13 1007.2 - 0.0 - - - - - - -
29/02:30pm 31.8 W 6 11 1007.7 - 0.0 - - - - - - -
29/02:00pm 31.4 W 6 12 1008.1 - 0.0 - - - - - - -
29/01:30pm 31.4 WSW 7 12 1008.1 - 0.0 - - - - - - -
29/01:00pm 31.4 WSW 7 13 1008.0 - 0.0 - - - - - - -
29/12:30pm 32.0 WSW 8 13 1008.3 - 0.0 - - - - - - -
29/12:00pm 31.2 W 7 13 1008.5 - 0.0 - - - - - - -
29/11:30am 31.2 W 9 13 1008.8 - 0.0 - - - - - - -
29/11:00am 30.8 W 8 15 1009.2 - 0.0 - - - - - - -
29/10:30am 30.6 WSW 6 10 1009.6 - 0.0 - - - - - - -
29/10:00am 30.5 W 7 12 1009.6 - 0.0 - - - - - - -
29/09:30am 30.5 W 6 12 1009.4 - 0.0 - - - - - - -
29/09:00am 30.1 WSW 7 12 1009.3 - 0.0 - - - - - - -
29/08:30am 29.9 W 6 11 1009.3 - 0.0 - - - - - - -
29/08:00am 29.3 W 5 10 1009.1 - 0.0 - - - - - - -
29/07:30am 28.6 WSW 6 11 1008.7 - 0.0 - - - - - - -
29/07:00am 28.5 WSW 5 9 1008.5 - 0.0 - - - - - - -
29/06:30am 28.6 W 5 11 1008.2 - 0.0 - - - - - - -
29/06:00am 28.5 W 6 10 1008.1 - 0.0 - - - - - - -
29/05:30am 28.5 W 5 8 1008.1 - 0.0 - - - - - - -
29/05:00am 28.6 W 5 8 1008.1 - 0.0 - - - - - - -
29/04:30am 28.7 W 5 10 1008.0 - 0.0 - - - - - - -
29/04:00am 28.7 W 5 8 1007.9 - 0.0 - - - - - - -
29/03:30am 28.6 W 4 9 1007.8 - 0.0 - - - - - - -
29/03:00am 28.7 W 5 9 1007.9 - 0.0 - - - - - - -
29/02:30am 28.6 W 4 8 1007.8 - 0.0 - - - - - - -
29/02:00am 28.7 W 4 9 1007.8 - 0.0 - - - - - - -
29/01:30am 28.7 W 5 8 1008.0 - 0.0 - - - - - - -
29/01:00am 28.8 W 4 7 1008.1 - 0.0 - - - - - - -
29/12:30am 28.7 WSW 3 8 1008.5 - 0.0 - - - - - - -
29/12:00am 28.7 W 4 7 1008.2 - 0.0 - - - - - - -
 
Date/Time
CST
Temp
°C
Wind Pressure Rain since
9am
mm
Weather Cloud Vis
km
Sea
Height
m
Swell
Dir  Spd
kts
Gust
kts
hPa Trend Height
m
Period
s
Dir
28/11:30pm 28.7 WSW 5 9 1008.4 - 0.0 - - - - - - -
28/11:00pm 28.6 WSW 4 8 1008.4 - 0.0 - - - - - - -
28/10:30pm 28.7 WSW 5 8 1008.6 - 0.0 - - - - - - -
28/10:00pm 28.7 WSW 3 8 1008.9 - 0.0 - - - - - - -
28/09:30pm 28.7 WSW 3 7 1008.8 - 0.0 - - - - - - -
28/09:00pm 28.9 SW 4 8 1008.8 - 0.0 - - - - - - -
28/08:30pm 29.1 WSW 4 8 1008.6 - 0.0 - - - - - - -
28/08:00pm 29.1 WSW 5 9 1008.0 - 0.0 - - - - - - -
28/07:30pm 29.1 W 5 10 1007.4 - 0.0 - - - - - - -
28/07:00pm 29.2 W 6 11 1006.5 - 0.0 - - - - - - -
28/06:30pm 29.5 W 7 13 1006.1 - 0.0 - - - - - - -
28/06:00pm 30.1 W 7 13 1005.9 - 0.0 - - - - - - -
28/05:30pm 30.9 W 6 13 1005.9 - 0.0 - - - - - - -
28/05:00pm 31.4 W 6 12 1006.1 - 0.0 - - - - - - -
28/04:30pm 31.6 W 6 11 1006.2 - 0.0 - - - - - - -
28/04:00pm 31.3 W 7 12 1006.7 - 0.0 - - - - - - -
28/03:30pm 31.3 W 7 14 1007.0 - 0.0 - - - - - - -
28/03:00pm 31.6 W 7 12 1007.1 - 0.0 - - - - - - -
28/02:30pm 31.4 W 7 14 1007.5 - 0.0 - - - - - - -
28/02:00pm 31.5 W 7 11 1007.9 - 0.0 - - - - - - -
28/01:30pm 31.0 W 7 13 1008.4 - 0.0 - - - - - - -
28/01:00pm 31.6 W 7 15 1008.7 - 0.0 - - - - - - -
28/12:30pm 31.4 W 7 15 1009.3 - 0.0 - - - - - - -
28/12:00pm 31.0 W 7 16 1009.7 - 0.0 - - - - - - -
28/11:30am 31.1 W 7 12 1010.2 - 0.0 - - - - - - -
28/11:00am 29.9 W 8 13 1010.6 - 0.0 - - - - - - -
28/10:30am 30.1 W 8 13 1010.5 - 0.0 - - - - - - -
28/10:00am 29.8 W 5 10 1010.7 - 0.0 - - - - - - -
28/09:30am 29.6 W 6 11 1010.6 - 0.0 - - - - - - -
28/09:00am 29.5 WNW 4 10 1010.7 - 0.2 - - - - - - -
28/08:30am 28.9 WNW 5 8 1010.6 - 0.2 - - - - - - -
28/08:00am 28.8 W 6 11 1010.2 - 0.2 - - - - - - -
28/07:30am 28.4 WNW 5 10 1009.5 - 0.2 - - - - - - -
28/07:00am 28.3 W 6 11 1009.2 - 0.2 - - - - - - -
28/06:30am 28.2 W 5 11 1009.2 - 0.2 - - - - - - -
28/06:00am 28.2 W 4 9 1009.1 - 0.2 - - - - - - -

Other Formats:

Comma delimited format used in spreadsheet applications
http://www.bom.gov.au/fwo/IDD60701/IDD60701.99501.axf

JavaScript Object Notation format (JSON) in row-major order
http://www.bom.gov.au/fwo/IDD60701/IDD60701.99501.json